sensor_id;sensor_type;location;lat;lon;timestamp;temperature;humidity
8340;DHT22;4207;49.314;7.162;2023-03-11T00:00:44;1.20;99.90
8340;DHT22;4207;49.314;7.162;2023-03-11T00:03:15;1.10;99.90
8340;DHT22;4207;49.314;7.162;2023-03-11T00:05:45;1.10;99.90
8340;DHT22;4207;49.314;7.162;2023-03-11T00:08:16;1.10;99.90
8340;DHT22;4207;49.314;7.162;2023-03-11T00:10:47;1.00;99.90
8340;DHT22;4207;49.314;7.162;2023-03-11T00:13:17;1.00;99.90
8340;DHT22;4207;49.314;7.162;2023-03-11T00:15:47;1.00;99.90
8340;DHT22;4207;49.314;7.162;2023-03-11T00:18:16;1.00;99.90
8340;DHT22;4207;49.314;7.162;2023-03-11T00:20:45;1.00;99.90
8340;DHT22;4207;49.314;7.162;2023-03-11T00:23:14;1.00;99.90
8340;DHT22;4207;49.314;7.162;2023-03-11T00:25:43;1.00;99.90
8340;DHT22;4207;49.314;7.162;2023-03-11T00:28:14;1.00;99.90
8340;DHT22;4207;49.314;7.162;2023-03-11T00:30:44;1.00;99.90
8340;DHT22;4207;49.314;7.162;2023-03-11T00:33:14;1.00;99.90
8340;DHT22;4207;49.314;7.162;2023-03-11T00:35:45;1.00;99.90
8340;DHT22;4207;49.314;7.162;2023-03-11T00:38:15;1.00;99.90
8340;DHT22;4207;49.314;7.162;2023-03-11T00:40:47;1.00;99.90
8340;DHT22;4207;49.314;7.162;2023-03-11T00:43:17;0.90;99.90
8340;DHT22;4207;49.314;7.162;2023-03-11T00:45:45;1.00;99.90
8340;DHT22;4207;49.314;7.162;2023-03-11T00:48:14;0.90;99.90
8340;DHT22;4207;49.314;7.162;2023-03-11T00:50:42;0.90;99.90
8340;DHT22;4207;49.314;7.162;2023-03-11T00:53:10;0.90;99.90
8340;DHT22;4207;49.314;7.162;2023-03-11T00:55:40;0.90;99.90
8340;DHT22;4207;49.314;7.162;2023-03-11T00:58:11;0.90;99.90
8340;DHT22;4207;49.314;7.162;2023-03-11T01:00:48;0.80;99.90
8340;DHT22;4207;49.314;7.162;2023-03-11T01:03:16;0.80;99.90
8340;DHT22;4207;49.314;7.162;2023-03-11T01:05:44;0.70;99.90
8340;DHT22;4207;49.314;7.162;2023-03-11T01:08:12;0.70;99.90
8340;DHT22;4207;49.314;7.162;2023-03-11T01:10:41;0.70;99.90
8340;DHT22;4207;49.314;7.162;2023-03-11T01:13:09;0.60;99.90
8340;DHT22;4207;49.314;7.162;2023-03-11T01:15:37;0.60;99.90
8340;DHT22;4207;49.314;7.162;2023-03-11T01:18:06;0.60;99.90
8340;DHT22;4207;49.314;7.162;2023-03-11T01:20:37;0.50;99.90
8340;DHT22;4207;49.314;7.162;2023-03-11T01:23:06;0.50;99.90
8340;DHT22;4207;49.314;7.162;2023-03-11T01:25:34;0.40;99.90
8340;DHT22;4207;49.314;7.162;2023-03-11T01:28:03;0.40;99.90
8340;DHT22;4207;49.314;7.162;2023-03-11T01:30:31;0.40;99.90
8340;DHT22;4207;49.314;7.162;2023-03-11T01:32:59;0.30;99.90
8340;DHT22;4207;49.314;7.162;2023-03-11T01:35:30;0.30;99.90
8340;DHT22;4207;49.314;7.162;2023-03-11T01:37:58;0.30;99.90
8340;DHT22;4207;49.314;7.162;2023-03-11T01:40:29;0.30;99.90
8340;DHT22;4207;49.314;7.162;2023-03-11T01:43:02;0.20;99.90
8340;DHT22;4207;49.314;7.162;2023-03-11T01:45:39;0.30;99.90
8340;DHT22;4207;49.314;7.162;2023-03-11T01:48:09;0.30;99.90
8340;DHT22;4207;49.314;7.162;2023-03-11T01:50:43;0.30;99.90
8340;DHT22;4207;49.314;7.162;2023-03-11T01:53:12;0.30;99.90
8340;DHT22;4207;49.314;7.162;2023-03-11T01:55:41;0.30;99.90
8340;DHT22;4207;49.314;7.162;2023-03-11T01:58:13;0.30;99.90
8340;DHT22;4207;49.314;7.162;2023-03-11T02:00:44;0.30;99.90
8340;DHT22;4207;49.314;7.162;2023-03-11T02:03:16;0.30;99.90
8340;DHT22;4207;49.314;7.162;2023-03-11T02:05:48;0.30;99.90
8340;DHT22;4207;49.314;7.162;2023-03-11T02:08:17;0.20;99.90
8340;DHT22;4207;49.314;7.162;2023-03-11T02:10:46;0.20;99.90
8340;DHT22;4207;49.314;7.162;2023-03-11T02:13:16;0.10;99.90
8340;DHT22;4207;49.314;7.162;2023-03-11T02:15:44;0.20;99.90
8340;DHT22;4207;49.314;7.162;2023-03-11T02:18:14;0.10;99.90
8340;DHT22;4207;49.314;7.162;2023-03-11T02:20:48;0.10;99.90
8340;DHT22;4207;49.314;7.162;2023-03-11T02:23:20;0.10;99.90
8340;DHT22;4207;49.314;7.162;2023-03-11T02:25:57;0.10;99.90
8340;DHT22;4207;49.314;7.162;2023-03-11T02:28:31;0.00;99.90
8340;DHT22;4207;49.314;7.162;2023-03-11T02:30:59;-0.10;99.90
8340;DHT22;4207;49.314;7.162;2023-03-11T02:33:30;-0.10;99.90
8340;DHT22;4207;49.314;7.162;2023-03-11T02:36:01;-0.10;99.90
8340;DHT22;4207;49.314;7.162;2023-03-11T02:38:29;-0.10;99.90
8340;DHT22;4207;49.314;7.162;2023-03-11T02:40:59;-0.20;99.90
8340;DHT22;4207;49.314;7.162;2023-03-11T02:43:34;-0.20;99.90
8340;DHT22;4207;49.314;7.162;2023-03-11T02:46:06;-0.20;99.90
8340;DHT22;4207;49.314;7.162;2023-03-11T02:48:35;-0.30;99.90
8340;DHT22;4207;49.314;7.162;2023-03-11T02:51:05;-0.30;99.90
8340;DHT22;4207;49.314;7.162;2023-03-11T02:53:38;-0.40;99.90
8340;DHT22;4207;49.314;7.162;2023-03-11T02:56:08;-0.40;99.90
8340;DHT22;4207;49.314;7.162;2023-03-11T02:58:37;-0.40;99.90
8340;DHT22;4207;49.314;7.162;2023-03-11T03:01:07;-0.50;99.90
8340;DHT22;4207;49.314;7.162;2023-03-11T03:03:36;-0.50;99.90
8340;DHT22;4207;49.314;7.162;2023-03-11T03:06:05;-0.50;99.90
8340;DHT22;4207;49.314;7.162;2023-03-11T03:08:33;-0.50;99.90
8340;DHT22;4207;49.314;7.162;2023-03-11T03:11:03;-0.50;99.90
8340;DHT22;4207;49.314;7.162;2023-03-11T03:13:32;-0.50;99.90
8340;DHT22;4207;49.314;7.162;2023-03-11T03:16:02;-0.60;99.90
8340;DHT22;4207;49.314;7.162;2023-03-11T03:18:32;-0.60;99.90
8340;DHT22;4207;49.314;7.162;2023-03-11T03:21:00;-0.60;99.90
8340;DHT22;4207;49.314;7.162;2023-03-11T03:23:28;-0.60;99.90
8340;DHT22;4207;49.314;7.162;2023-03-11T03:26:00;-0.60;99.90
8340;DHT22;4207;49.314;7.162;2023-03-11T03:28:29;-0.60;99.90
8340;DHT22;4207;49.314;7.162;2023-03-11T03:31:04;-0.70;99.90
8340;DHT22;4207;49.314;7.162;2023-03-11T03:33:32;-0.70;99.90
8340;DHT22;4207;49.314;7.162;2023-03-11T03:36:05;-0.70;99.90
8340;DHT22;4207;49.314;7.162;2023-03-11T03:38:38;-0.70;99.90
8340;DHT22;4207;49.314;7.162;2023-03-11T03:41:07;-0.70;99.90
8340;DHT22;4207;49.314;7.162;2023-03-11T03:43:38;-0.70;99.90
8340;DHT22;4207;49.314;7.162;2023-03-11T03:46:08;-0.70;99.90
8340;DHT22;4207;49.314;7.162;2023-03-11T03:48:41;-0.80;99.90
8340;DHT22;4207;49.314;7.162;2023-03-11T03:51:12;-0.80;99.90
8340;DHT22;4207;49.314;7.162;2023-03-11T03:53:47;-0.80;99.90
8340;DHT22;4207;49.314;7.162;2023-03-11T03:56:17;-0.80;99.90
8340;DHT22;4207;49.314;7.162;2023-03-11T03:58:45;-0.90;99.90
8340;DHT22;4207;49.314;7.162;2023-03-11T04:01:14;-0.90;99.90
8340;DHT22;4207;49.314;7.162;2023-03-11T04:03:42;-1.00;99.90
8340;DHT22;4207;49.314;7.162;2023-03-11T04:06:16;-1.00;99.90
8340;DHT22;4207;49.314;7.162;2023-03-11T04:08:49;-1.00;99.90
8340;DHT22;4207;49.314;7.162;2023-03-11T04:11:19;-1.00;99.90
8340;DHT22;4207;49.314;7.162;2023-03-11T04:13:47;-1.00;99.90
8340;DHT22;4207;49.314;7.162;2023-03-11T04:16:19;-1.00;99.90
8340;DHT22;4207;49.314;7.162;2023-03-11T04:18:49;-1.00;99.90
8340;DHT22;4207;49.314;7.162;2023-03-11T04:21:19;-1.00;99.90
8340;DHT22;4207;49.314;7.162;2023-03-11T04:23:47;-1.10;99.90
8340;DHT22;4207;49.314;7.162;2023-03-11T04:26:18;-1.10;99.90
8340;DHT22;4207;49.314;7.162;2023-03-11T04:28:46;-1.10;99.90
8340;DHT22;4207;49.314;7.162;2023-03-11T04:31:17;-1.10;99.90
8340;DHT22;4207;49.314;7.162;2023-03-11T04:33:45;-1.10;99.90
8340;DHT22;4207;49.314;7.162;2023-03-11T04:36:14;-1.10;99.90
8340;DHT22;4207;49.314;7.162;2023-03-11T04:38:42;-1.10;99.90
8340;DHT22;4207;49.314;7.162;2023-03-11T04:41:12;-1.10;99.90
8340;DHT22;4207;49.314;7.162;2023-03-11T04:43:41;-1.10;99.90
8340;DHT22;4207;49.314;7.162;2023-03-11T04:46:09;-1.10;99.90
8340;DHT22;4207;49.314;7.162;2023-03-11T04:48:41;-1.10;99.90
8340;DHT22;4207;49.314;7.162;2023-03-11T04:51:09;-1.10;99.90
8340;DHT22;4207;49.314;7.162;2023-03-11T04:53:37;-1.10;99.90
8340;DHT22;4207;49.314;7.162;2023-03-11T04:56:06;-1.10;99.90
8340;DHT22;4207;49.314;7.162;2023-03-11T04:58:36;-1.10;99.90
8340;DHT22;4207;49.314;7.162;2023-03-11T05:01:04;-1.20;99.90
8340;DHT22;4207;49.314;7.162;2023-03-11T05:03:33;-1.10;99.90
8340;DHT22;4207;49.314;7.162;2023-03-11T05:06:03;-1.10;99.90
8340;DHT22;4207;49.314;7.162;2023-03-11T05:08:31;-1.10;99.90
8340;DHT22;4207;49.314;7.162;2023-03-11T05:10:59;-1.10;99.90
8340;DHT22;4207;49.314;7.162;2023-03-11T05:13:27;-1.20;99.90
8340;DHT22;4207;49.314;7.162;2023-03-11T05:15:56;-1.10;99.90
8340;DHT22;4207;49.314;7.162;2023-03-11T05:18:24;-1.20;99.90
8340;DHT22;4207;49.314;7.162;2023-03-11T05:20:53;-1.20;99.90
8340;DHT22;4207;49.314;7.162;2023-03-11T05:23:26;-1.20;99.90
8340;DHT22;4207;49.314;7.162;2023-03-11T05:25:54;-1.20;99.90
8340;DHT22;4207;49.314;7.162;2023-03-11T05:28:22;-1.20;99.90
8340;DHT22;4207;49.314;7.162;2023-03-11T05:30:52;-1.20;99.90
8340;DHT22;4207;49.314;7.162;2023-03-11T05:33:20;-1.20;99.90
8340;DHT22;4207;49.314;7.162;2023-03-11T05:35:50;-1.10;99.90
8340;DHT22;4207;49.314;7.162;2023-03-11T05:38:19;-1.00;99.90
8340;DHT22;4207;49.314;7.162;2023-03-11T05:40:49;-1.00;99.90
8340;DHT22;4207;49.314;7.162;2023-03-11T05:43:17;-0.30;99.90
8340;DHT22;4207;49.314;7.162;2023-03-11T05:45:51;-0.90;99.90
8340;DHT22;4207;49.314;7.162;2023-03-11T05:48:19;-0.80;99.90
8340;DHT22;4207;49.314;7.162;2023-03-11T05:50:48;-0.70;99.90
8340;DHT22;4207;49.314;7.162;2023-03-11T05:53:18;-0.70;99.90
8340;DHT22;4207;49.314;7.162;2023-03-11T05:55:55;-0.60;99.90
8340;DHT22;4207;49.314;7.162;2023-03-11T05:58:26;-0.60;99.90
8340;DHT22;4207;49.314;7.162;2023-03-11T06:00:54;-0.60;99.90
8340;DHT22;4207;49.314;7.162;2023-03-11T06:03:22;-0.60;99.90
8340;DHT22;4207;49.314;7.162;2023-03-11T06:05:51;-0.60;99.90
8340;DHT22;4207;49.314;7.162;2023-03-11T06:08:19;-0.60;99.90
8340;DHT22;4207;49.314;7.162;2023-03-11T06:10:47;-0.70;99.90
8340;DHT22;4207;49.314;7.162;2023-03-11T06:13:19;-0.70;99.90
8340;DHT22;4207;49.314;7.162;2023-03-11T06:15:50;-0.80;99.90
8340;DHT22;4207;49.314;7.162;2023-03-11T06:18:20;-0.80;99.90
8340;DHT22;4207;49.314;7.162;2023-03-11T06:20:48;-0.80;99.90
8340;DHT22;4207;49.314;7.162;2023-03-11T06:23:16;-0.90;99.90
8340;DHT22;4207;49.314;7.162;2023-03-11T06:25:44;-0.90;99.90
8340;DHT22;4207;49.314;7.162;2023-03-11T06:28:24;-0.90;99.90
8340;DHT22;4207;49.314;7.162;2023-03-11T06:30:52;-0.90;99.90
8340;DHT22;4207;49.314;7.162;2023-03-11T06:33:23;-1.00;99.90
8340;DHT22;4207;49.314;7.162;2023-03-11T06:35:56;-1.00;99.90
8340;DHT22;4207;49.314;7.162;2023-03-11T06:38:26;-1.00;99.90
8340;DHT22;4207;49.314;7.162;2023-03-11T06:40:58;-1.00;99.90
8340;DHT22;4207;49.314;7.162;2023-03-11T06:43:27;-1.00;99.90
8340;DHT22;4207;49.314;7.162;2023-03-11T06:45:56;-0.90;99.90
8340;DHT22;4207;49.314;7.162;2023-03-11T06:48:25;-0.80;99.90
8340;DHT22;4207;49.314;7.162;2023-03-11T06:50:54;-0.70;99.90
8340;DHT22;4207;49.314;7.162;2023-03-11T06:53:23;-0.60;99.90
8340;DHT22;4207;49.314;7.162;2023-03-11T06:55:59;-0.40;99.90
8340;DHT22;4207;49.314;7.162;2023-03-11T06:58:31;-0.30;99.90
8340;DHT22;4207;49.314;7.162;2023-03-11T07:01:00;-0.30;99.90
8340;DHT22;4207;49.314;7.162;2023-03-11T07:03:29;-0.30;99.90
8340;DHT22;4207;49.314;7.162;2023-03-11T07:05:58;-0.20;99.90
8340;DHT22;4207;49.314;7.162;2023-03-11T07:08:27;-0.10;99.90
8340;DHT22;4207;49.314;7.162;2023-03-11T07:11:00;-0.10;99.90
8340;DHT22;4207;49.314;7.162;2023-03-11T07:13:31;0.00;99.90
8340;DHT22;4207;49.314;7.162;2023-03-11T07:16:01;0.00;99.90
8340;DHT22;4207;49.314;7.162;2023-03-11T07:18:31;0.10;99.90
8340;DHT22;4207;49.314;7.162;2023-03-11T07:21:01;0.10;99.90
8340;DHT22;4207;49.314;7.162;2023-03-11T07:23:29;0.40;99.90
8340;DHT22;4207;49.314;7.162;2023-03-11T07:25:58;0.20;99.90
8340;DHT22;4207;49.314;7.162;2023-03-11T07:28:27;0.30;99.90
8340;DHT22;4207;49.314;7.162;2023-03-11T07:30:57;0.30;99.90
8340;DHT22;4207;49.314;7.162;2023-03-11T07:33:25;0.40;99.90
8340;DHT22;4207;49.314;7.162;2023-03-11T07:35:53;0.50;99.90
8340;DHT22;4207;49.314;7.162;2023-03-11T07:38:21;0.50;99.90
8340;DHT22;4207;49.314;7.162;2023-03-11T07:40:57;0.60;99.90
8340;DHT22;4207;49.314;7.162;2023-03-11T07:43:25;0.70;99.90
8340;DHT22;4207;49.314;7.162;2023-03-11T07:46:03;0.70;99.90
8340;DHT22;4207;49.314;7.162;2023-03-11T07:48:32;0.80;99.90
8340;DHT22;4207;49.314;7.162;2023-03-11T07:51:01;0.90;99.90
8340;DHT22;4207;49.314;7.162;2023-03-11T07:53:29;0.90;99.90
8340;DHT22;4207;49.314;7.162;2023-03-11T07:55:58;1.00;99.90
8340;DHT22;4207;49.314;7.162;2023-03-11T07:58:26;1.00;99.90
8340;DHT22;4207;49.314;7.162;2023-03-11T08:00:55;1.10;99.90
8340;DHT22;4207;49.314;7.162;2023-03-11T08:03:25;1.10;99.90
8340;DHT22;4207;49.314;7.162;2023-03-11T08:05:53;1.10;99.90
8340;DHT22;4207;49.314;7.162;2023-03-11T08:20:47;1.40;99.90
8340;DHT22;4207;49.314;7.162;2023-03-11T08:23:16;1.50;99.90
8340;DHT22;4207;49.314;7.162;2023-03-11T08:25:44;1.60;99.90
8340;DHT22;4207;49.314;7.162;2023-03-11T08:28:13;1.80;99.90
8340;DHT22;4207;49.314;7.162;2023-03-11T08:30:41;1.70;99.90
8340;DHT22;4207;49.314;7.162;2023-03-11T08:33:10;1.80;99.90
8340;DHT22;4207;49.314;7.162;2023-03-11T08:35:38;1.80;99.90
8340;DHT22;4207;49.314;7.162;2023-03-11T08:38:08;2.40;99.90
8340;DHT22;4207;49.314;7.162;2023-03-11T08:40:36;1.90;99.90
8340;DHT22;4207;49.314;7.162;2023-03-11T08:43:04;1.90;99.90
8340;DHT22;4207;49.314;7.162;2023-03-11T08:45:33;1.90;99.90
8340;DHT22;4207;49.314;7.162;2023-03-11T08:48:01;1.90;99.90
8340;DHT22;4207;49.314;7.162;2023-03-11T08:50:30;2.00;99.90
8340;DHT22;4207;49.314;7.162;2023-03-11T08:53:08;2.00;99.90
8340;DHT22;4207;49.314;7.162;2023-03-11T08:55:36;2.10;99.90
8340;DHT22;4207;49.314;7.162;2023-03-11T08:58:04;2.10;99.90
8340;DHT22;4207;49.314;7.162;2023-03-11T09:00:33;2.20;99.90
8340;DHT22;4207;49.314;7.162;2023-03-11T09:03:01;2.20;99.90
8340;DHT22;4207;49.314;7.162;2023-03-11T09:05:30;2.30;99.90
8340;DHT22;4207;49.314;7.162;2023-03-11T09:07:58;2.40;99.90
8340;DHT22;4207;49.314;7.162;2023-03-11T09:10:27;2.60;99.90
8340;DHT22;4207;49.314;7.162;2023-03-11T09:12:56;2.70;99.90
8340;DHT22;4207;49.314;7.162;2023-03-11T09:15:24;3.30;99.90
8340;DHT22;4207;49.314;7.162;2023-03-11T09:17:52;3.30;99.90
8340;DHT22;4207;49.314;7.162;2023-03-11T09:20:20;3.30;99.90
8340;DHT22;4207;49.314;7.162;2023-03-11T09:22:48;3.40;99.90
8340;DHT22;4207;49.314;7.162;2023-03-11T09:25:16;3.40;99.90
8340;DHT22;4207;49.314;7.162;2023-03-11T09:27:46;3.50;99.90
8340;DHT22;4207;49.314;7.162;2023-03-11T09:30:14;3.60;99.90
8340;DHT22;4207;49.314;7.162;2023-03-11T09:32:44;3.70;99.90
8340;DHT22;4207;49.314;7.162;2023-03-11T09:35:12;3.70;99.90
8340;DHT22;4207;49.314;7.162;2023-03-11T09:37:40;3.80;99.90
8340;DHT22;4207;49.314;7.162;2023-03-11T09:40:11;3.80;99.90
8340;DHT22;4207;49.314;7.162;2023-03-11T09:42:48;3.70;99.90
8340;DHT22;4207;49.314;7.162;2023-03-11T09:45:20;3.60;99.90
8340;DHT22;4207;49.314;7.162;2023-03-11T09:48:06;3.40;99.90
8340;DHT22;4207;49.314;7.162;2023-03-11T09:50:45;3.30;99.90
8340;DHT22;4207;49.314;7.162;2023-03-11T09:53:24;3.30;99.90
8340;DHT22;4207;49.314;7.162;2023-03-11T09:55:57;3.30;99.90
8340;DHT22;4207;49.314;7.162;2023-03-11T09:58:36;3.50;99.90
8340;DHT22;4207;49.314;7.162;2023-03-11T10:01:14;3.70;99.90
8340;DHT22;4207;49.314;7.162;2023-03-11T10:03:44;4.00;99.90
8340;DHT22;4207;49.314;7.162;2023-03-11T10:06:16;4.30;99.90
8340;DHT22;4207;49.314;7.162;2023-03-11T10:08:53;4.80;99.90
8340;DHT22;4207;49.314;7.162;2023-03-11T10:11:54;5.10;99.90
8340;DHT22;4207;49.314;7.162;2023-03-11T10:14:47;5.30;99.90
8340;DHT22;4207;49.314;7.162;2023-03-11T10:17:35;5.40;99.90
8340;DHT22;4207;49.314;7.162;2023-03-11T10:20:12;5.30;99.90
8340;DHT22;4207;49.314;7.162;2023-03-11T10:22:48;5.10;99.10
8340;DHT22;4207;49.314;7.162;2023-03-11T10:25:23;4.90;98.50
8340;DHT22;4207;49.314;7.162;2023-03-11T10:27:56;4.80;98.70
8340;DHT22;4207;49.314;7.162;2023-03-11T10:30:30;4.70;99.30
8340;DHT22;4207;49.314;7.162;2023-03-11T10:33:01;4.40;99.60
8340;DHT22;4207;49.314;7.162;2023-03-11T10:35:38;4.30;99.90
8340;DHT22;4207;49.314;7.162;2023-03-11T10:38:13;4.00;99.20
8340;DHT22;4207;49.314;7.162;2023-03-11T10:40:42;3.90;99.80
8340;DHT22;4207;49.314;7.162;2023-03-11T10:43:15;3.70;99.90
8340;DHT22;4207;49.314;7.162;2023-03-11T10:45:45;3.70;99.90
8340;DHT22;4207;49.314;7.162;2023-03-11T10:48:15;3.70;99.90
8340;DHT22;4207;49.314;7.162;2023-03-11T10:50:49;3.80;99.90
8340;DHT22;4207;49.314;7.162;2023-03-11T10:53:20;3.70;99.90
8340;DHT22;4207;49.314;7.162;2023-03-11T10:55:53;3.90;99.90
8340;DHT22;4207;49.314;7.162;2023-03-11T10:58:31;4.00;99.90
8340;DHT22;4207;49.314;7.162;2023-03-11T11:01:13;4.10;99.50
8340;DHT22;4207;49.314;7.162;2023-03-11T11:03:44;4.50;99.80
8340;DHT22;4207;49.314;7.162;2023-03-11T11:06:21;4.20;98.30
8340;DHT22;4207;49.314;7.162;2023-03-11T11:09:04;4.20;97.70
8340;DHT22;4207;49.314;7.162;2023-03-11T11:11:33;4.20;97.50
8340;DHT22;4207;49.314;7.162;2023-03-11T11:14:02;4.20;98.20
8340;DHT22;4207;49.314;7.162;2023-03-11T11:16:32;4.30;98.40
8340;DHT22;4207;49.314;7.162;2023-03-11T11:19:03;4.40;97.40
8340;DHT22;4207;49.314;7.162;2023-03-11T11:21:37;4.50;96.90
8340;DHT22;4207;49.314;7.162;2023-03-11T11:24:14;4.50;96.20
8340;DHT22;4207;49.314;7.162;2023-03-11T11:27:02;4.50;96.70
8340;DHT22;4207;49.314;7.162;2023-03-11T11:29:31;4.50;96.60
8340;DHT22;4207;49.314;7.162;2023-03-11T11:32:17;4.70;95.30
8340;DHT22;4207;49.314;7.162;2023-03-11T11:34:57;4.80;95.60
8340;DHT22;4207;49.314;7.162;2023-03-11T11:37:28;4.90;95.20
8340;DHT22;4207;49.314;7.162;2023-03-11T11:40:00;5.10;95.40
8340;DHT22;4207;49.314;7.162;2023-03-11T11:42:38;5.30;95.30
8340;DHT22;4207;49.314;7.162;2023-03-11T11:45:15;5.60;94.60
8340;DHT22;4207;49.314;7.162;2023-03-11T11:47:48;5.90;94.90
8340;DHT22;4207;49.314;7.162;2023-03-11T11:50:25;6.30;95.40
8340;DHT22;4207;49.314;7.162;2023-03-11T11:52:57;6.60;94.10
8340;DHT22;4207;49.314;7.162;2023-03-11T11:55:29;6.80;93.40
8340;DHT22;4207;49.314;7.162;2023-03-11T11:57:58;7.00;93.60
8340;DHT22;4207;49.314;7.162;2023-03-11T12:00:32;7.20;93.20
8340;DHT22;4207;49.314;7.162;2023-03-11T12:03:21;7.30;93.60
8340;DHT22;4207;49.314;7.162;2023-03-11T12:05:56;7.30;92.30
8340;DHT22;4207;49.314;7.162;2023-03-11T12:08:30;7.10;91.90
8340;DHT22;4207;49.314;7.162;2023-03-11T12:11:03;6.90;91.90
8340;DHT22;4207;49.314;7.162;2023-03-11T12:14:00;6.50;91.30
8340;DHT22;4207;49.314;7.162;2023-03-11T12:16:39;6.10;90.90
8340;DHT22;4207;49.314;7.162;2023-03-11T12:19:21;5.80;91.20
8340;DHT22;4207;49.314;7.162;2023-03-11T12:22:07;5.50;90.80
8340;DHT22;4207;49.314;7.162;2023-03-11T12:24:57;5.30;91.50
8340;DHT22;4207;49.314;7.162;2023-03-11T12:27:31;5.30;91.80
8340;DHT22;4207;49.314;7.162;2023-03-11T12:30:03;5.20;92.00
8340;DHT22;4207;49.314;7.162;2023-03-11T12:32:35;5.30;92.50
8340;DHT22;4207;49.314;7.162;2023-03-11T12:35:19;5.50;92.90
8340;DHT22;4207;49.314;7.162;2023-03-11T12:37:55;5.50;91.10
8340;DHT22;4207;49.314;7.162;2023-03-11T12:40:46;5.70;91.40
8340;DHT22;4207;49.314;7.162;2023-03-11T12:43:26;5.70;90.80
8340;DHT22;4207;49.314;7.162;2023-03-11T12:45:56;5.80;90.50
8340;DHT22;4207;49.314;7.162;2023-03-11T12:48:36;6.00;90.50
8340;DHT22;4207;49.314;7.162;2023-03-11T12:51:37;6.00;90.30
8340;DHT22;4207;49.314;7.162;2023-03-11T12:54:27;6.10;90.50
8340;DHT22;4207;49.314;7.162;2023-03-11T12:56:58;6.10;90.80
8340;DHT22;4207;49.314;7.162;2023-03-11T13:00:00;6.20;90.90
8340;DHT22;4207;49.314;7.162;2023-03-11T13:02:46;6.10;90.20
8340;DHT22;4207;49.314;7.162;2023-03-11T13:05:22;6.10;90.30
8340;DHT22;4207;49.314;7.162;2023-03-11T13:07:57;6.00;89.40
8340;DHT22;4207;49.314;7.162;2023-03-11T13:10:37;6.00;90.10
8340;DHT22;4207;49.314;7.162;2023-03-11T13:13:28;5.90;90.80
8340;DHT22;4207;49.314;7.162;2023-03-11T13:15:59;5.90;91.10
8340;DHT22;4207;49.314;7.162;2023-03-11T13:18:47;5.90;90.30
8340;DHT22;4207;49.314;7.162;2023-03-11T13:21:36;5.90;90.40
8340;DHT22;4207;49.314;7.162;2023-03-11T13:24:47;5.90;91.00
8340;DHT22;4207;49.314;7.162;2023-03-11T13:27:25;6.00;90.70
8340;DHT22;4207;49.314;7.162;2023-03-11T13:29:59;6.10;90.50
8340;DHT22;4207;49.314;7.162;2023-03-11T13:32:47;6.30;91.10
8340;DHT22;4207;49.314;7.162;2023-03-11T13:35:29;6.60;91.40
8340;DHT22;4207;49.314;7.162;2023-03-11T13:38:12;6.70;91.30
8340;DHT22;4207;49.314;7.162;2023-03-11T13:40:46;6.80;90.60
8340;DHT22;4207;49.314;7.162;2023-03-11T13:43:16;6.80;90.20
8340;DHT22;4207;49.314;7.162;2023-03-11T13:45:49;6.90;88.30
8340;DHT22;4207;49.314;7.162;2023-03-11T13:48:21;6.80;87.30
8340;DHT22;4207;49.314;7.162;2023-03-11T13:50:55;6.80;87.00
8340;DHT22;4207;49.314;7.162;2023-03-11T13:53:29;6.70;86.50
8340;DHT22;4207;49.314;7.162;2023-03-11T13:56:00;6.60;86.80
8340;DHT22;4207;49.314;7.162;2023-03-11T13:58:28;6.60;87.00
8340;DHT22;4207;49.314;7.162;2023-03-11T14:00:57;6.70;88.40
8340;DHT22;4207;49.314;7.162;2023-03-11T14:03:30;6.80;87.70
8340;DHT22;4207;49.314;7.162;2023-03-11T14:06:02;7.00;86.50
8340;DHT22;4207;49.314;7.162;2023-03-11T14:08:32;7.10;85.10
8340;DHT22;4207;49.314;7.162;2023-03-11T14:11:13;7.20;85.60
8340;DHT22;4207;49.314;7.162;2023-03-11T14:13:44;7.40;86.60
8340;DHT22;4207;49.314;7.162;2023-03-11T14:16:14;7.50;86.10
8340;DHT22;4207;49.314;7.162;2023-03-11T14:18:44;7.60;83.60
8340;DHT22;4207;49.314;7.162;2023-03-11T14:21:15;7.60;82.50
8340;DHT22;4207;49.314;7.162;2023-03-11T14:23:45;7.60;82.90
8340;DHT22;4207;49.314;7.162;2023-03-11T14:26:18;7.50;82.10
8340;DHT22;4207;49.314;7.162;2023-03-11T14:28:50;7.50;81.40
8340;DHT22;4207;49.314;7.162;2023-03-11T14:31:32;7.40;81.80
8340;DHT22;4207;49.314;7.162;2023-03-11T14:34:03;7.50;82.10
8340;DHT22;4207;49.314;7.162;2023-03-11T14:36:39;7.50;82.10
8340;DHT22;4207;49.314;7.162;2023-03-11T14:39:28;7.60;83.40
8340;DHT22;4207;49.314;7.162;2023-03-11T14:42:05;7.70;83.10
8340;DHT22;4207;49.314;7.162;2023-03-11T14:44:36;7.60;83.20
8340;DHT22;4207;49.314;7.162;2023-03-11T14:47:10;7.60;81.70
8340;DHT22;4207;49.314;7.162;2023-03-11T14:49:41;7.50;81.30
8340;DHT22;4207;49.314;7.162;2023-03-11T14:52:17;7.30;80.20
8340;DHT22;4207;49.314;7.162;2023-03-11T14:54:46;7.30;81.40
8340;DHT22;4207;49.314;7.162;2023-03-11T14:57:22;7.30;81.10
8340;DHT22;4207;49.314;7.162;2023-03-11T14:59:52;7.40;82.40
8340;DHT22;4207;49.314;7.162;2023-03-11T15:02:32;7.60;82.40
8340;DHT22;4207;49.314;7.162;2023-03-11T15:05:04;7.70;82.30
8340;DHT22;4207;49.314;7.162;2023-03-11T15:07:35;7.80;80.10
8340;DHT22;4207;49.314;7.162;2023-03-11T15:10:07;7.80;80.20
8340;DHT22;4207;49.314;7.162;2023-03-11T15:12:40;7.70;78.60
8340;DHT22;4207;49.314;7.162;2023-03-11T15:15:24;7.60;77.60
8340;DHT22;4207;49.314;7.162;2023-03-11T15:17:54;7.40;77.50
8340;DHT22;4207;49.314;7.162;2023-03-11T15:20:25;7.30;78.40
8340;DHT22;4207;49.314;7.162;2023-03-11T15:22:54;7.30;78.50
8340;DHT22;4207;49.314;7.162;2023-03-11T15:25:28;7.30;79.00
8340;DHT22;4207;49.314;7.162;2023-03-11T15:27:58;7.20;77.90
8340;DHT22;4207;49.314;7.162;2023-03-11T15:30:28;7.20;78.10
8340;DHT22;4207;49.314;7.162;2023-03-11T15:33:00;7.20;79.00
8340;DHT22;4207;49.314;7.162;2023-03-11T15:35:30;7.20;78.50
8340;DHT22;4207;49.314;7.162;2023-03-11T15:38:18;7.10;78.30
8340;DHT22;4207;49.314;7.162;2023-03-11T15:40:52;7.10;78.90
8340;DHT22;4207;49.314;7.162;2023-03-11T15:43:25;7.00;79.60
8340;DHT22;4207;49.314;7.162;2023-03-11T15:45:56;7.00;79.90
8340;DHT22;4207;49.314;7.162;2023-03-11T15:48:24;6.90;77.80
8340;DHT22;4207;49.314;7.162;2023-03-11T15:50:55;6.80;79.00
8340;DHT22;4207;49.314;7.162;2023-03-11T15:53:25;6.80;80.20
8340;DHT22;4207;49.314;7.162;2023-03-11T15:55:56;6.70;79.60
8340;DHT22;4207;49.314;7.162;2023-03-11T15:58:35;6.70;79.60
8340;DHT22;4207;49.314;7.162;2023-03-11T16:01:04;6.50;79.10
8340;DHT22;4207;49.314;7.162;2023-03-11T16:03:35;6.40;79.30
8340;DHT22;4207;49.314;7.162;2023-03-11T16:06:07;6.30;79.50
8340;DHT22;4207;49.314;7.162;2023-03-11T16:08:35;6.10;80.20
8340;DHT22;4207;49.314;7.162;2023-03-11T16:11:03;5.90;81.30
8340;DHT22;4207;49.314;7.162;2023-03-11T16:13:33;5.80;82.10
8340;DHT22;4207;49.314;7.162;2023-03-11T16:16:01;5.80;82.10
8340;DHT22;4207;49.314;7.162;2023-03-11T16:18:32;5.70;82.60
8340;DHT22;4207;49.314;7.162;2023-03-11T16:21:02;5.60;81.90
8340;DHT22;4207;49.314;7.162;2023-03-11T16:23:35;5.50;82.10
8340;DHT22;4207;49.314;7.162;2023-03-11T16:26:16;5.40;82.20
8340;DHT22;4207;49.314;7.162;2023-03-11T16:28:48;5.40;83.00
8340;DHT22;4207;49.314;7.162;2023-03-11T16:31:17;5.40;83.40
8340;DHT22;4207;49.314;7.162;2023-03-11T16:33:45;5.50;84.00
8340;DHT22;4207;49.314;7.162;2023-03-11T16:36:13;5.50;83.70
8340;DHT22;4207;49.314;7.162;2023-03-11T16:38:43;5.50;83.00
8340;DHT22;4207;49.314;7.162;2023-03-11T16:41:12;5.50;83.50
8340;DHT22;4207;49.314;7.162;2023-03-11T16:43:40;5.60;83.60
8340;DHT22;4207;49.314;7.162;2023-03-11T16:46:10;5.50;84.00
8340;DHT22;4207;49.314;7.162;2023-03-11T16:48:38;5.50;84.00
8340;DHT22;4207;49.314;7.162;2023-03-11T16:51:06;5.50;83.70
8340;DHT22;4207;49.314;7.162;2023-03-11T16:53:34;5.40;84.10
8340;DHT22;4207;49.314;7.162;2023-03-11T16:56:04;5.30;84.40